sensor_id;sensor_type;location;lat;lon;timestamp;pressure;altitude;pressure_sealevel;temperature;humidity
11343;BME280;5726;42.160;24.746;2023-05-02T00:01:36;100016.03;;;14.14;98.90
11343;BME280;5726;42.160;24.746;2023-05-02T00:04:01;100021.63;;;14.18;97.65
11343;BME280;5726;42.160;24.746;2023-05-02T00:06:29;100022.38;;;13.91;98.50
11343;BME280;5726;42.160;24.746;2023-05-02T00:08:56;100026.03;;;14.14;97.15
11343;BME280;5726;42.160;24.746;2023-05-02T00:11:21;100028.84;;;14.22;95.36
11343;BME280;5726;42.160;24.746;2023-05-02T00:13:48;100023.63;;;14.12;95.65
11343;BME280;5726;42.160;24.746;2023-05-02T00:16:14;100023.03;;;14.15;95.83
11343;BME280;5726;42.160;24.746;2023-05-02T00:18:39;100027.94;;;14.27;94.23
11343;BME280;5726;42.160;24.746;2023-05-02T00:21:05;100021.13;;;14.29;94.16
11343;BME280;5726;42.160;24.746;2023-05-02T00:23:31;100022.84;;;14.25;94.45
11343;BME280;5726;42.160;24.746;2023-05-02T00:25:56;100030.63;;;14.13;94.45
11343;BME280;5726;42.160;24.746;2023-05-02T00:28:22;100036.63;;;14.37;92.82
11343;BME280;5726;42.160;24.746;2023-05-02T00:30:47;100038.19;;;14.11;94.38
11343;BME280;5726;42.160;24.746;2023-05-02T00:33:13;100033.41;;;14.35;93.19
11343;BME280;5726;42.160;24.746;2023-05-02T00:35:40;100042.81;;;14.51;91.26
11343;BME280;5726;42.160;24.746;2023-05-02T00:38:05;100045.31;;;14.61;90.09
11343;BME280;5726;42.160;24.746;2023-05-02T00:40:41;100043.59;;;14.51;90.41
11343;BME280;5726;42.160;24.746;2023-05-02T00:43:07;100051.97;;;14.63;90.14
11343;BME280;5726;42.160;24.746;2023-05-02T00:45:32;100050.00;;;14.69;89.32
11343;BME280;5726;42.160;24.746;2023-05-02T00:47:58;100057.34;;;14.90;87.73
11343;BME280;5726;42.160;24.746;2023-05-02T00:50:25;100059.75;;;14.78;88.36
11343;BME280;5726;42.160;24.746;2023-05-02T00:52:54;100059.13;;;14.94;87.10
11343;BME280;5726;42.160;24.746;2023-05-02T00:55:19;100055.94;;;14.92;86.24
11343;BME280;5726;42.160;24.746;2023-05-02T00:57:45;100062.13;;;14.93;84.85
11343;BME280;5726;42.160;24.746;2023-05-02T01:00:11;100059.56;;;14.88;85.50
11343;BME280;5726;42.160;24.746;2023-05-02T01:02:52;100059.97;;;14.82;85.69
11343;BME280;5726;42.160;24.746;2023-05-02T01:05:35;100060.16;;;14.85;84.91
11343;BME280;5726;42.160;24.746;2023-05-02T01:13:31;100060.78;;;14.69;84.89
11343;BME280;5726;42.160;24.746;2023-05-02T01:15:58;100063.78;;;14.54;85.40
11343;BME280;5726;42.160;24.746;2023-05-02T01:18:30;100063.50;;;14.29;86.14
11343;BME280;5726;42.160;24.746;2023-05-02T01:20:59;100066.69;;;14.44;85.22
11343;BME280;5726;42.160;24.746;2023-05-02T01:23:40;100065.59;;;14.58;83.70
11343;BME280;5726;42.160;24.746;2023-05-02T01:26:34;100076.56;;;14.35;82.49
11343;BME280;5726;42.160;24.746;2023-05-02T01:29:02;100061.78;;;14.19;83.78
11343;BME280;5726;42.160;24.746;2023-05-02T01:31:33;100059.59;;;14.21;83.05
11343;BME280;5726;42.160;24.746;2023-05-02T01:34:00;100064.81;;;13.99;83.28
11343;BME280;5726;42.160;24.746;2023-05-02T01:36:29;100065.97;;;14.12;82.87
11343;BME280;5726;42.160;24.746;2023-05-02T01:38:56;100061.97;;;14.09;82.36
11343;BME280;5726;42.160;24.746;2023-05-02T01:41:27;100070.72;;;14.01;82.43
11343;BME280;5726;42.160;24.746;2023-05-02T01:43:58;100064.50;;;14.19;81.88
11343;BME280;5726;42.160;24.746;2023-05-02T01:46:31;100071.16;;;14.08;81.71
11343;BME280;5726;42.160;24.746;2023-05-02T01:49:01;100064.81;;;14.31;80.71
11343;BME280;5726;42.160;24.746;2023-05-02T01:51:29;100068.00;;;14.33;80.44
11343;BME280;5726;42.160;24.746;2023-05-02T01:53:58;100066.06;;;14.33;80.86
11343;BME280;5726;42.160;24.746;2023-05-02T01:56:26;100070.78;;;14.15;82.00
11343;BME280;5726;42.160;24.746;2023-05-02T01:58:54;100079.16;;;14.13;82.53
11343;BME280;5726;42.160;24.746;2023-05-02T02:01:22;100076.97;;;14.15;82.07
11343;BME280;5726;42.160;24.746;2023-05-02T02:03:49;100074.97;;;14.21;82.07
11343;BME280;5726;42.160;24.746;2023-05-02T02:06:14;100078.56;;;14.16;82.69
11343;BME280;5726;42.160;24.746;2023-05-02T02:08:40;100077.31;;;13.95;84.54
11343;BME280;5726;42.160;24.746;2023-05-02T02:11:08;100079.06;;;13.86;85.15
11343;BME280;5726;42.160;24.746;2023-05-02T02:13:43;100087.41;;;13.72;86.87
11343;BME280;5726;42.160;24.746;2023-05-02T02:16:11;100074.28;;;13.84;85.43
11343;BME280;5726;42.160;24.746;2023-05-02T02:18:38;100076.16;;;13.83;85.63
11343;BME280;5726;42.160;24.746;2023-05-02T02:21:06;100075.94;;;13.80;85.04
11343;BME280;5726;42.160;24.746;2023-05-02T02:23:34;100076.44;;;13.82;85.30
11343;BME280;5726;42.160;24.746;2023-05-02T02:26:01;100075.84;;;13.84;84.44
11343;BME280;5726;42.160;24.746;2023-05-02T02:28:45;100070.13;;;14.04;82.24
11343;BME280;5726;42.160;24.746;2023-05-02T02:31:12;100074.50;;;14.00;80.83
11343;BME280;5726;42.160;24.746;2023-05-02T02:33:37;100084.81;;;13.98;79.62
11343;BME280;5726;42.160;24.746;2023-05-02T02:36:28;100078.88;;;13.96;79.55
11343;BME280;5726;42.160;24.746;2023-05-02T02:39:11;100078.22;;;14.04;79.25
11343;BME280;5726;42.160;24.746;2023-05-02T02:41:52;100077.66;;;13.89;80.45
11343;BME280;5726;42.160;24.746;2023-05-02T02:44:42;100077.84;;;13.79;79.98
11343;BME280;5726;42.160;24.746;2023-05-02T02:47:20;100088.78;;;13.69;80.21
11343;BME280;5726;42.160;24.746;2023-05-02T02:50:22;100092.81;;;13.72;80.41
11343;BME280;5726;42.160;24.746;2023-05-02T02:52:51;100087.66;;;13.88;78.26
11343;BME280;5726;42.160;24.746;2023-05-02T02:55:44;100085.25;;;13.87;78.38
11343;BME280;5726;42.160;24.746;2023-05-02T03:01:17;100100.16;;;13.66;78.94
11343;BME280;5726;42.160;24.746;2023-05-02T03:03:44;100107.81;;;13.59;79.84
11343;BME280;5726;42.160;24.746;2023-05-02T03:06:11;100109.19;;;13.75;78.69
11343;BME280;5726;42.160;24.746;2023-05-02T03:08:38;100104.63;;;13.57;80.18
11343;BME280;5726;42.160;24.746;2023-05-02T03:11:04;100103.66;;;13.67;80.06
11343;BME280;5726;42.160;24.746;2023-05-02T03:13:30;100102.41;;;13.59;79.72
11343;BME280;5726;42.160;24.746;2023-05-02T03:18:52;100111.44;;;13.86;77.62
11343;BME280;5726;42.160;24.746;2023-05-02T03:21:17;100112.06;;;13.97;77.51
11343;BME280;5726;42.160;24.746;2023-05-02T03:23:43;100113.00;;;13.87;77.72
11343;BME280;5726;42.160;24.746;2023-05-02T03:26:08;100111.00;;;13.80;78.42
11343;BME280;5726;42.160;24.746;2023-05-02T03:28:33;100114.94;;;14.00;78.09
11343;BME280;5726;42.160;24.746;2023-05-02T03:30:59;100123.81;;;14.19;77.11
11343;BME280;5726;42.160;24.746;2023-05-02T03:33:24;100126.56;;;14.46;76.48
11343;BME280;5726;42.160;24.746;2023-05-02T03:35:50;100124.56;;;14.78;74.78
11343;BME280;5726;42.160;24.746;2023-05-02T03:38:15;100122.84;;;15.22;73.07
11343;BME280;5726;42.160;24.746;2023-05-02T03:40:40;100133.22;;;15.64;69.20
11343;BME280;5726;42.160;24.746;2023-05-02T03:43:06;100133.31;;;15.59;68.34
11343;BME280;5726;42.160;24.746;2023-05-02T03:45:31;100144.59;;;15.96;66.27
11343;BME280;5726;42.160;24.746;2023-05-02T03:47:57;100146.44;;;16.09;64.81
11343;BME280;5726;42.160;24.746;2023-05-02T03:50:22;100159.41;;;16.20;63.99
11343;BME280;5726;42.160;24.746;2023-05-02T03:52:48;100148.50;;;16.64;63.09
11343;BME280;5726;42.160;24.746;2023-05-02T03:55:13;100155.75;;;17.23;60.00
11343;BME280;5726;42.160;24.746;2023-05-02T03:57:39;100157.06;;;17.76;57.03
11343;BME280;5726;42.160;24.746;2023-05-02T04:00:05;100158.16;;;18.09;55.64
11343;BME280;5726;42.160;24.746;2023-05-02T04:02:31;100146.66;;;18.37;54.13
11343;BME280;5726;42.160;24.746;2023-05-02T04:04:56;100155.00;;;18.69;57.65
11343;BME280;5726;42.160;24.746;2023-05-02T04:07:22;100152.78;;;19.09;53.03
11343;BME280;5726;42.160;24.746;2023-05-02T04:09:50;100153.06;;;19.36;52.03
11343;BME280;5726;42.160;24.746;2023-05-02T04:12:15;100155.28;;;19.63;50.28
11343;BME280;5726;42.160;24.746;2023-05-02T04:14:41;100156.06;;;19.83;48.87
11343;BME280;5726;42.160;24.746;2023-05-02T04:17:06;100168.44;;;20.01;48.52
11343;BME280;5726;42.160;24.746;2023-05-02T04:19:33;100169.81;;;20.07;47.80
11343;BME280;5726;42.160;24.746;2023-05-02T04:21:59;100165.63;;;20.10;47.55
11343;BME280;5726;42.160;24.746;2023-05-02T04:24:24;100173.75;;;20.30;47.29
11343;BME280;5726;42.160;24.746;2023-05-02T04:26:50;100176.31;;;20.47;46.48
11343;BME280;5726;42.160;24.746;2023-05-02T04:29:15;100171.56;;;20.56;46.03
11343;BME280;5726;42.160;24.746;2023-05-02T04:31:41;100170.75;;;20.55;45.31
11343;BME280;5726;42.160;24.746;2023-05-02T04:34:07;100174.56;;;20.74;44.69
11343;BME280;5726;42.160;24.746;2023-05-02T04:36:32;100176.34;;;20.59;45.19
11343;BME280;5726;42.160;24.746;2023-05-02T04:38:59;100178.66;;;20.68;45.98
11343;BME280;5726;42.160;24.746;2023-05-02T04:41:24;100176.06;;;20.72;45.59
11343;BME280;5726;42.160;24.746;2023-05-02T04:43:50;100178.91;;;20.43;46.41
11343;BME280;5726;42.160;24.746;2023-05-02T04:46:16;100170.66;;;20.63;46.43
11343;BME280;5726;42.160;24.746;2023-05-02T04:48:45;100171.41;;;21.20;44.58
11343;BME280;5726;42.160;24.746;2023-05-02T04:51:10;100174.59;;;21.22;43.40
11343;BME280;5726;42.160;24.746;2023-05-02T04:53:36;100175.75;;;21.21;43.40
11343;BME280;5726;42.160;24.746;2023-05-02T04:56:02;100181.63;;;20.87;44.05
11343;BME280;5726;42.160;24.746;2023-05-02T04:58:27;100171.38;;;20.72;44.50
11343;BME280;5726;42.160;24.746;2023-05-02T05:00:52;100174.47;;;21.30;43.03
11343;BME280;5726;42.160;24.746;2023-05-02T05:03:19;100179.13;;;21.42;44.26
11343;BME280;5726;42.160;24.746;2023-05-02T05:05:44;100183.25;;;21.24;41.61
11343;BME280;5726;42.160;24.746;2023-05-02T05:08:09;100184.59;;;20.94;40.66
11343;BME280;5726;42.160;24.746;2023-05-02T05:10:35;100191.16;;;20.81;41.38
11343;BME280;5726;42.160;24.746;2023-05-02T05:13:00;100181.88;;;20.94;40.89
11343;BME280;5726;42.160;24.746;2023-05-02T05:15:26;100184.25;;;20.84;41.71
11343;BME280;5726;42.160;24.746;2023-05-02T05:17:52;100191.09;;;21.02;40.62
11343;BME280;5726;42.160;24.746;2023-05-02T05:20:17;100191.78;;;20.66;40.71
11343;BME280;5726;42.160;24.746;2023-05-02T05:22:43;100197.66;;;20.57;41.14
11343;BME280;5726;42.160;24.746;2023-05-02T05:25:09;100187.00;;;20.63;44.28
11343;BME280;5726;42.160;24.746;2023-05-02T05:27:36;100193.13;;;20.49;42.02
11343;BME280;5726;42.160;24.746;2023-05-02T05:30:05;100185.53;;;20.54;41.80
11343;BME280;5726;42.160;24.746;2023-05-02T05:32:32;100205.25;;;20.83;41.39
11343;BME280;5726;42.160;24.746;2023-05-02T05:34:57;100199.44;;;20.85;41.81
11343;BME280;5726;42.160;24.746;2023-05-02T05:37:23;100202.00;;;20.58;41.98
11343;BME280;5726;42.160;24.746;2023-05-02T05:39:48;100198.00;;;20.55;42.92
11343;BME280;5726;42.160;24.746;2023-05-02T05:42:14;100199.00;;;20.83;42.39
11343;BME280;5726;42.160;24.746;2023-05-02T05:44:39;100199.78;;;20.39;43.56
11343;BME280;5726;42.160;24.746;2023-05-02T05:47:05;100208.97;;;20.35;43.46
11343;BME280;5726;42.160;24.746;2023-05-02T05:49:31;100209.25;;;19.81;44.03
11343;BME280;5726;42.160;24.746;2023-05-02T05:51:57;100207.13;;;19.66;45.70
11343;BME280;5726;42.160;24.746;2023-05-02T05:54:22;100205.88;;;19.35;46.49
11343;BME280;5726;42.160;24.746;2023-05-02T05:56:48;100211.59;;;19.70;46.33
11343;BME280;5726;42.160;24.746;2023-05-02T05:59:13;100203.44;;;19.91;45.89
11343;BME280;5726;42.160;24.746;2023-05-02T06:01:39;100213.81;;;19.97;46.48
11343;BME280;5726;42.160;24.746;2023-05-02T06:04:05;100209.81;;;20.15;46.26
11343;BME280;5726;42.160;24.746;2023-05-02T06:06:31;100204.81;;;20.17;46.01
11343;BME280;5726;42.160;24.746;2023-05-02T06:08:57;100207.94;;;20.07;46.01
11343;BME280;5726;42.160;24.746;2023-05-02T06:11:22;100206.59;;;20.13;46.60
11343;BME280;5726;42.160;24.746;2023-05-02T06:13:51;100202.09;;;20.17;46.67
11343;BME280;5726;42.160;24.746;2023-05-02T06:16:17;100206.88;;;19.79;47.89
11343;BME280;5726;42.160;24.746;2023-05-02T06:18:44;100214.13;;;19.96;48.69
11343;BME280;5726;42.160;24.746;2023-05-02T06:21:09;100208.47;;;20.21;45.20
11343;BME280;5726;42.160;24.746;2023-05-02T06:23:35;100215.81;;;20.41;44.53
11343;BME280;5726;42.160;24.746;2023-05-02T06:26:01;100208.38;;;20.62;43.10
11343;BME280;5726;42.160;24.746;2023-05-02T06:28:28;100213.69;;;20.58;44.24
11343;BME280;5726;42.160;24.746;2023-05-02T06:31:04;100208.56;;;20.57;43.96
11343;BME280;5726;42.160;24.746;2023-05-02T06:33:31;100206.50;;;20.54;43.23
11343;BME280;5726;42.160;24.746;2023-05-02T06:35:57;100205.16;;;20.60;43.40
11343;BME280;5726;42.160;24.746;2023-05-02T06:38:23;100201.63;;;20.79;43.20
11343;BME280;5726;42.160;24.746;2023-05-02T06:40:49;100200.88;;;20.59;43.23
11343;BME280;5726;42.160;24.746;2023-05-02T06:43:15;100198.31;;;20.74;42.79
11343;BME280;5726;42.160;24.746;2023-05-02T06:45:40;100201.19;;;21.01;42.96
11343;BME280;5726;42.160;24.746;2023-05-02T06:48:06;100194.81;;;20.97;42.80
11343;BME280;5726;42.160;24.746;2023-05-02T06:50:32;100202.44;;;21.15;42.44
11343;BME280;5726;42.160;24.746;2023-05-02T06:52:58;100207.22;;;21.18;42.35
11343;BME280;5726;42.160;24.746;2023-05-02T06:55:24;100195.53;;;21.18;41.97
11343;BME280;5726;42.160;24.746;2023-05-02T06:57:50;100198.94;;;21.15;42.31
11343;BME280;5726;42.160;24.746;2023-05-02T07:00:17;100200.50;;;21.04;42.74
11343;BME280;5726;42.160;24.746;2023-05-02T07:02:47;100195.03;;;21.28;42.48
11343;BME280;5726;42.160;24.746;2023-05-02T07:05:13;100202.53;;;21.19;42.40
11343;BME280;5726;42.160;24.746;2023-05-02T07:07:43;100202.66;;;20.99;42.66
11343;BME280;5726;42.160;24.746;2023-05-02T07:10:09;100193.00;;;21.13;42.82
11343;BME280;5726;42.160;24.746;2023-05-02T07:12:35;100195.84;;;21.40;42.09
11343;BME280;5726;42.160;24.746;2023-05-02T07:15:01;100204.25;;;21.59;41.06
11343;BME280;5726;42.160;24.746;2023-05-02T07:17:26;100201.19;;;21.60;40.60
11343;BME280;5726;42.160;24.746;2023-05-02T07:19:52;100196.97;;;21.63;38.49
11343;BME280;5726;42.160;24.746;2023-05-02T07:22:18;100179.84;;;21.90;38.96
11343;BME280;5726;42.160;24.746;2023-05-02T07:24:44;100185.31;;;22.17;38.17
11343;BME280;5726;42.160;24.746;2023-05-02T07:27:10;100195.00;;;22.14;36.72
11343;BME280;5726;42.160;24.746;2023-05-02T07:29:36;100190.16;;;21.96;37.36
11343;BME280;5726;42.160;24.746;2023-05-02T07:32:02;100197.06;;;22.17;37.14
11343;BME280;5726;42.160;24.746;2023-05-02T07:34:27;100196.63;;;22.04;36.50
11343;BME280;5726;42.160;24.746;2023-05-02T07:36:52;100191.03;;;22.12;36.90
11343;BME280;5726;42.160;24.746;2023-05-02T07:39:18;100186.22;;;21.94;36.82
11343;BME280;5726;42.160;24.746;2023-05-02T07:41:44;100176.38;;;22.05;37.12
11343;BME280;5726;42.160;24.746;2023-05-02T07:44:10;100177.09;;;22.29;36.55
11343;BME280;5726;42.160;24.746;2023-05-02T07:46:35;100184.22;;;22.60;36.42
11343;BME280;5726;42.160;24.746;2023-05-02T07:49:01;100168.13;;;22.16;36.34
11343;BME280;5726;42.160;24.746;2023-05-02T07:51:26;100174.56;;;22.51;36.58
11343;BME280;5726;42.160;24.746;2023-05-02T07:53:52;100167.97;;;22.67;35.98
11343;BME280;5726;42.160;24.746;2023-05-02T07:56:20;100161.72;;;22.52;34.88
11343;BME280;5726;42.160;24.746;2023-05-02T07:58:45;100159.22;;;22.47;34.76
11343;BME280;5726;42.160;24.746;2023-05-02T08:01:11;100178.25;;;22.28;34.42
11343;BME280;5726;42.160;24.746;2023-05-02T08:03:36;100159.59;;;22.18;34.40
11343;BME280;5726;42.160;24.746;2023-05-02T08:06:02;100168.13;;;22.44;33.30
11343;BME280;5726;42.160;24.746;2023-05-02T08:08:28;100168.94;;;22.44;32.74
11343;BME280;5726;42.160;24.746;2023-05-02T08:10:53;100160.19;;;22.11;32.42
11343;BME280;5726;42.160;24.746;2023-05-02T08:13:19;100158.25;;;22.12;32.55
11343;BME280;5726;42.160;24.746;2023-05-02T08:15:44;100156.75;;;22.26;32.32
11343;BME280;5726;42.160;24.746;2023-05-02T08:18:10;100155.22;;;22.02;32.56
11343;BME280;5726;42.160;24.746;2023-05-02T08:20:35;100163.34;;;22.13;33.04
11343;BME280;5726;42.160;24.746;2023-05-02T08:23:01;100161.50;;;22.29;31.36
11343;BME280;5726;42.160;24.746;2023-05-02T08:25:26;100142.03;;;22.31;31.43
11343;BME280;5726;42.160;24.746;2023-05-02T08:27:52;100157.84;;;21.98;32.26
11343;BME280;5726;42.160;24.746;2023-05-02T08:30:17;100148.38;;;21.80;32.27
11343;BME280;5726;42.160;24.746;2023-05-02T08:32:44;100148.50;;;21.72;32.39
11343;BME280;5726;42.160;24.746;2023-05-02T08:35:10;100144.78;;;21.92;31.78
11343;BME280;5726;42.160;24.746;2023-05-02T08:37:35;100132.66;;;22.05;32.39
11343;BME280;5726;42.160;24.746;2023-05-02T08:40:01;100136.38;;;22.24;32.21
11343;BME280;5726;42.160;24.746;2023-05-02T08:42:27;100139.13;;;21.85;31.74
11343;BME280;5726;42.160;24.746;2023-05-02T08:44:53;100141.53;;;21.86;31.63
11343;BME280;5726;42.160;24.746;2023-05-02T08:47:19;100128.25;;;22.00;31.22
11343;BME280;5726;42.160;24.746;2023-05-02T08:49:45;100140.56;;;21.94;30.77
11343;BME280;5726;42.160;24.746;2023-05-02T08:52:13;100136.41;;;22.12;31.05
11343;BME280;5726;42.160;24.746;2023-05-02T08:54:40;100131.06;;;22.04;30.90
11343;BME280;5726;42.160;24.746;2023-05-02T08:57:06;100141.22;;;22.03;30.71
11343;BME280;5726;42.160;24.746;2023-05-02T08:59:32;100122.72;;;22.12;30.76
11343;BME280;5726;42.160;24.746;2023-05-02T09:02:00;100126.25;;;21.85;31.07
11343;BME280;5726;42.160;24.746;2023-05-02T09:04:30;100124.63;;;21.96;30.24
11343;BME280;5726;42.160;24.746;2023-05-02T09:07:00;100116.69;;;21.91;30.59
11343;BME280;5726;42.160;24.746;2023-05-02T09:09:25;100120.97;;;22.04;31.01
11343;BME280;5726;42.160;24.746;2023-05-02T09:11:51;100118.16;;;21.89;31.94
11343;BME280;5726;42.160;24.746;2023-05-02T09:14:17;100119.66;;;22.13;31.66
11343;BME280;5726;42.160;24.746;2023-05-02T09:16:43;100102.47;;;22.13;31.11
11343;BME280;5726;42.160;24.746;2023-05-02T09:19:09;100099.59;;;21.94;31.05
11343;BME280;5726;42.160;24.746;2023-05-02T09:21:38;100114.09;;;22.10;30.54
11343;BME280;5726;42.160;24.746;2023-05-02T09:24:19;100097.81;;;21.86;31.07
11343;BME280;5726;42.160;24.746;2023-05-02T09:27:01;100092.47;;;22.05;31.11
11343;BME280;5726;42.160;24.746;2023-05-02T09:29:28;100105.75;;;21.91;31.61
11343;BME280;5726;42.160;24.746;2023-05-02T09:31:59;100106.81;;;21.87;31.54
11343;BME280;5726;42.160;24.746;2023-05-02T09:34:25;100091.03;;;21.80;30.54
11343;BME280;5726;42.160;24.746;2023-05-02T09:36:51;100087.34;;;21.88;30.10
11343;BME280;5726;42.160;24.746;2023-05-02T09:39:23;100091.84;;;21.96;30.40
11343;BME280;5726;42.160;24.746;2023-05-02T09:41:49;100085.19;;;21.55;31.17
11343;BME280;5726;42.160;24.746;2023-05-02T09:44:19;100091.25;;;21.75;30.69
11343;BME280;5726;42.160;24.746;2023-05-02T09:46:50;100100.59;;;21.74;30.38
11343;BME280;5726;42.160;24.746;2023-05-02T09:49:16;100100.13;;;21.33;31.04
11343;BME280;5726;42.160;24.746;2023-05-02T09:51:48;100072.28;;;21.28;30.94
11343;BME280;5726;42.160;24.746;2023-05-02T09:54:34;100070.41;;;21.44;32.21
11343;BME280;5726;42.160;24.746;2023-05-02T09:57:03;100061.56;;;21.47;32.69
11343;BME280;5726;42.160;24.746;2023-05-02T09:59:28;100061.06;;;21.68;31.90
11343;BME280;5726;42.160;24.746;2023-05-02T10:02:04;100073.59;;;21.58;31.81
11343;BME280;5726;42.160;24.746;2023-05-02T10:04:32;100057.72;;;21.48;32.22
11343;BME280;5726;42.160;24.746;2023-05-02T10:06:59;100049.19;;;21.49;31.66
11343;BME280;5726;42.160;24.746;2023-05-02T10:09:26;100074.50;;;21.61;31.74
11343;BME280;5726;42.160;24.746;2023-05-02T10:11:54;100095.25;;;21.27;31.06
11343;BME280;5726;42.160;24.746;2023-05-02T10:14:23;100096.41;;;21.14;31.54
11343;BME280;5726;42.160;24.746;2023-05-02T10:17:01;100044.81;;;21.21;31.92
11343;BME280;5726;42.160;24.746;2023-05-02T10:19:34;100055.06;;;21.12;31.98
11343;BME280;5726;42.160;24.746;2023-05-02T10:22:02;100053.00;;;21.21;32.19
11343;BME280;5726;42.160;24.746;2023-05-02T10:24:31;100080.22;;;21.45;31.59
11343;BME280;5726;42.160;24.746;2023-05-02T10:26:56;100055.69;;;21.33;31.47
11343;BME280;5726;42.160;24.746;2023-05-02T10:29:22;100027.44;;;21.53;31.65
11343;BME280;5726;42.160;24.746;2023-05-02T10:31:48;100030.44;;;21.48;30.81
11343;BME280;5726;42.160;24.746;2023-05-02T10:34:14;100026.44;;;21.72;30.92
11343;BME280;5726;42.160;24.746;2023-05-02T10:36:42;100029.78;;;21.81;30.33
11343;BME280;5726;42.160;24.746;2023-05-02T10:39:07;100036.84;;;21.82;30.38
11343;BME280;5726;42.160;24.746;2023-05-02T10:41:33;100049.78;;;21.70;30.73
11343;BME280;5726;42.160;24.746;2023-05-02T10:43:59;100054.13;;;21.86;29.76
11343;BME280;5726;42.160;24.746;2023-05-02T10:46:34;100049.72;;;21.82;30.34
11343;BME280;5726;42.160;24.746;2023-05-02T10:49:05;100060.53;;;21.78;30.60
11343;BME280;5726;42.160;24.746;2023-05-02T10:51:31;100026.38;;;21.84;30.06
11343;BME280;5726;42.160;24.746;2023-05-02T10:54:32;100028.75;;;21.86;29.80
11343;BME280;5726;42.160;24.746;2023-05-02T10:59:38;100019.97;;;21.92;29.69
11343;BME280;5726;42.160;24.746;2023-05-02T11:02:06;100015.03;;;21.98;29.72
11343;BME280;5726;42.160;24.746;2023-05-02T11:05:07;100040.59;;;22.05;29.61
11343;BME280;5726;42.160;24.746;2023-05-02T11:07:34;100008.91;;;22.16;29.89
11343;BME280;5726;42.160;24.746;2023-05-02T11:12:48;100016.72;;;22.17;29.87
11343;BME280;5726;42.160;24.746;2023-05-02T11:18:05;100025.31;;;22.62;28.64
11343;BME280;5726;42.160;24.746;2023-05-02T11:20:35;100009.78;;;22.51;27.90
11343;BME280;5726;42.160;24.746;2023-05-02T11:25:41;100028.50;;;22.49;28.45
11343;BME280;5726;42.160;24.746;2023-05-02T11:30:58;100039.50;;;22.37;28.21
11343;BME280;5726;42.160;24.746;2023-05-02T11:33:26;100005.56;;;22.38;28.32
11343;BME280;5726;42.160;24.746;2023-05-02T11:35:52;100006.63;;;22.49;28.41
11343;BME280;5726;42.160;24.746;2023-05-02T11:38:19;99985.66;;;22.22;28.08
11343;BME280;5726;42.160;24.746;2023-05-02T11:40:49;100002.53;;;22.12;27.23
11343;BME280;5726;42.160;24.746;2023-05-02T11:43:17;99995.19;;;22.28;27.74
11343;BME280;5726;42.160;24.746;2023-05-02T11:45:43;99984.50;;;22.38;28.06
11343;BME280;5726;42.160;24.746;2023-05-02T11:48:10;99977.88;;;22.39;27.92
11343;BME280;5726;42.160;24.746;2023-05-02T11:50:44;100005.91;;;22.36;27.88
11343;BME280;5726;42.160;24.746;2023-05-02T11:53:14;99997.88;;;22.43;28.15
11343;BME280;5726;42.160;24.746;2023-05-02T11:55:47;99975.31;;;22.46;28.11
11343;BME280;5726;42.160;24.746;2023-05-02T11:58:14;99975.50;;;22.53;28.60
11343;BME280;5726;42.160;24.746;2023-05-02T12:00:41;99970.16;;;22.60;28.44
11343;BME280;5726;42.160;24.746;2023-05-02T12:03:06;99984.91;;;22.56;28.20
11343;BME280;5726;42.160;24.746;2023-05-02T12:05:32;99980.56;;;22.70;28.25
11343;BME280;5726;42.160;24.746;2023-05-02T12:07:57;99957.31;;;22.95;29.02
11343;BME280;5726;42.160;24.746;2023-05-02T12:10:34;99963.97;;;22.63;28.46
11343;BME280;5726;42.160;24.746;2023-05-02T12:13:04;99948.22;;;22.57;28.62
11343;BME280;5726;42.160;24.746;2023-05-02T12:15:31;99945.22;;;22.61;28.51
11343;BME280;5726;42.160;24.746;2023-05-02T12:17:56;99925.75;;;22.82;28.88
11343;BME280;5726;42.160;24.746;2023-05-02T12:20:22;99949.13;;;22.79;28.18
11343;BME280;5726;42.160;24.746;2023-05-02T12:22:47;99932.84;;;22.67;28.55
11343;BME280;5726;42.160;24.746;2023-05-02T12:25:14;99933.88;;;22.44;29.07
11343;BME280;5726;42.160;24.746;2023-05-02T12:27:40;99966.75;;;22.48;29.79
11343;BME280;5726;42.160;24.746;2023-05-02T12:30:06;99916.84;;;22.51;29.02
11343;BME280;5726;42.160;24.746;2023-05-02T12:32:33;99921.41;;;22.81;29.03
11343;BME280;5726;42.160;24.746;2023-05-02T12:35:00;99947.91;;;22.77;28.62
11343;BME280;5726;42.160;24.746;2023-05-02T12:37:27;99913.34;;;22.69;28.45
11343;BME280;5726;42.160;24.746;2023-05-02T12:42:36;99913.34;;;22.69;28.04
11343;BME280;5726;42.160;24.746;2023-05-02T12:45:02;99892.00;;;22.74;28.60
11343;BME280;5726;42.160;24.746;2023-05-02T12:47:27;99897.16;;;22.60;28.70
11343;BME280;5726;42.160;24.746;2023-05-02T12:49:57;99906.81;;;22.73;28.71
11343;BME280;5726;42.160;24.746;2023-05-02T12:52:49;99887.41;;;22.97;28.42
11343;BME280;5726;42.160;24.746;2023-05-02T12:55:22;99875.44;;;22.86;28.10
11343;BME280;5726;42.160;24.746;2023-05-02T12:58:06;99875.50;;;22.90;28.62
11343;BME280;5726;42.160;24.746;2023-05-02T13:00:35;99886.16;;;22.76;28.99
11343;BME280;5726;42.160;24.746;2023-05-02T13:03:01;99877.03;;;22.68;28.77
11343;BME280;5726;42.160;24.746;2023-05-02T13:05:26;99880.63;;;22.72;28.64
11343;BME280;5726;42.160;24.746;2023-05-02T13:07:51;99858.97;;;22.83;28.57
11343;BME280;5726;42.160;24.746;2023-05-02T13:10:17;99870.13;;;22.93;28.45
11343;BME280;5726;42.160;24.746;2023-05-02T13:12:46;99858.97;;;22.83;28.60
11343;BME280;5726;42.160;24.746;2023-05-02T13:15:12;99895.47;;;22.90;27.94
11343;BME280;5726;42.160;24.746;2023-05-02T13:17:38;99852.69;;;22.82;27.81
11343;BME280;5726;42.160;24.746;2023-05-02T13:20:04;99853.03;;;22.96;27.90
11343;BME280;5726;42.160;24.746;2023-05-02T13:22:30;99856.34;;;22.90;28.47